createdAt,value
2022-10-07T00:01:39.892Z,85.40
2022-10-07T00:04:08.268Z,85.67
2022-10-07T00:06:48.027Z,85.76
2022-10-07T00:09:16.172Z,85.45
2022-10-07T00:12:02.226Z,85.57
2022-10-07T00:14:37.918Z,85.65
2022-10-07T00:17:07.489Z,85.48
2022-10-07T00:19:44.423Z,85.50
2022-10-07T00:22:25.366Z,85.17
2022-10-07T00:24:53.523Z,85.07
2022-10-07T00:27:27.266Z,85.30
2022-10-07T00:29:59.977Z,85.31
2022-10-07T00:32:29.527Z,85.32
2022-10-07T00:35:11.834Z,85.20
2022-10-07T00:37:45.272Z,85.11
2022-10-07T00:40:14.649Z,84.84
2022-10-07T00:42:49.366Z,84.51
2022-10-07T00:45:21.537Z,84.72
2022-10-07T00:47:52.191Z,84.67
2022-10-07T00:50:27.835Z,84.38
2022-10-07T00:53:04.512Z,84.37
2022-10-07T00:55:33.827Z,84.42
2022-10-07T00:58:09.996Z,84.57
2022-10-07T01:00:41.032Z,84.59
2022-10-07T01:03:12.791Z,84.54
2022-10-07T01:05:44.630Z,84.40
2022-10-07T01:08:18.850Z,83.97
2022-10-07T01:11:00.036Z,84.02
2022-10-07T01:13:48.726Z,84.06
2022-10-07T01:16:30.917Z,84.12
2022-10-07T01:19:13.652Z,84.41
2022-10-07T01:21:54.171Z,84.43
2022-10-07T01:24:44.644Z,84.39
2022-10-07T01:27:22.450Z,84.40
2022-10-07T01:30:01.297Z,83.97
2022-10-07T01:32:37.130Z,83.76
2022-10-07T01:35:16.435Z,83.57
2022-10-07T01:37:48.604Z,83.35
2022-10-07T01:40:24.239Z,83.40
2022-10-07T01:42:59.132Z,83.01
2022-10-07T01:45:39.663Z,82.76
2022-10-07T01:48:11.011Z,82.56
2022-10-07T01:50:40.586Z,82.66
2022-10-07T01:53:27.702Z,82.62
2022-10-07T01:56:15.098Z,82.67
2022-10-07T01:59:08.756Z,82.67
2022-10-07T02:01:49.618Z,82.62
2022-10-07T02:04:34.702Z,83.12
2022-10-07T02:07:14.552Z,83.33
2022-10-07T02:09:51.053Z,83.21
2022-10-07T02:12:27.635Z,83.34
2022-10-07T02:15:09.600Z,83.65
2022-10-07T02:17:43.935Z,83.99
2022-10-07T02:20:20.406Z,84.07
2022-10-07T02:22:53.820Z,84.44
2022-10-07T02:25:29.232Z,84.64
2022-10-07T02:28:03.707Z,84.39
2022-10-07T02:30:39.476Z,84.57
2022-10-07T02:33:11.665Z,84.81
2022-10-07T02:35:50.824Z,85.15
2022-10-07T02:38:23.412Z,85.39
2022-10-07T02:40:59.779Z,85.45
2022-10-07T02:43:33.553Z,85.51
2022-10-07T02:46:10.489Z,85.68
2022-10-07T02:48:42.247Z,85.85
2022-10-07T02:51:18.651Z,85.94
2022-10-07T02:53:56.485Z,85.93
2022-10-07T02:56:29.108Z,86.05
2022-10-07T02:58:59.526Z,85.98
2022-10-07T03:01:33.732Z,86.29
2022-10-07T03:04:06.719Z,86.22
2022-10-07T03:06:39.368Z,86.30
2022-10-07T03:09:17.858Z,86.14
2022-10-07T03:11:49.510Z,86.47
2022-10-07T03:14:24.821Z,86.52
2022-10-07T03:16:56.428Z,86.69
2022-10-07T03:19:27.154Z,86.70
2022-10-07T03:21:58.379Z,86.73
2022-10-07T03:24:34.380Z,86.87
2022-10-07T03:27:07.318Z,86.72
2022-10-07T03:29:38.046Z,87.07
2022-10-07T03:32:19.492Z,87.34
2022-10-07T03:34:50.282Z,87.22
2022-10-07T03:37:23.862Z,87.35
2022-10-07T03:39:56.858Z,87.61
2022-10-07T03:42:30.907Z,87.55
2022-10-07T03:45:01.663Z,87.70
2022-10-07T03:47:39.268Z,88.06
2022-10-07T03:50:08.910Z,88.04
2022-10-07T03:52:38.680Z,88.25
2022-10-07T03:55:10.708Z,87.91
2022-10-07T03:58:00.112Z,88.05
2022-10-07T04:00:30.908Z,87.44
2022-10-07T04:03:07.840Z,87.37
2022-10-07T04:05:39.692Z,87.24
2022-10-07T04:08:08.267Z,87.43
2022-10-07T04:10:37.570Z,87.96
2022-10-07T04:13:22.581Z,88.21
2022-10-07T04:16:06.346Z,88.48
2022-10-07T04:18:38.629Z,88.85
2022-10-07T04:21:09.824Z,89.17
2022-10-07T04:23:38.845Z,90.01
2022-10-07T04:26:11.391Z,90.87
2022-10-07T04:28:43.736Z,91.69
2022-10-07T04:31:12.584Z,92.60
2022-10-07T04:33:51.886Z,93.32
2022-10-07T04:36:20.277Z,93.52
2022-10-07T04:38:53.413Z,93.90
2022-10-07T04:41:23.178Z,93.71
2022-10-07T04:43:55.398Z,93.28
2022-10-07T04:46:26.329Z,92.97
2022-10-07T04:49:06.544Z,93.01
2022-10-07T04:51:37.879Z,92.64
2022-10-07T04:54:06.998Z,91.88
2022-10-07T04:56:40.011Z,91.64
2022-10-07T04:59:10.342Z,91.67
2022-10-07T05:01:41.492Z,91.38
2022-10-07T05:04:13.868Z,90.93
2022-10-07T05:06:44.318Z,90.95
2022-10-07T05:09:14.925Z,91.42
2022-10-07T05:11:45.737Z,92.11
2022-10-07T05:14:13.909Z,93.43
2022-10-07T05:16:51.504Z,94.75
2022-10-07T05:19:23.564Z,95.28
2022-10-07T05:21:53.068Z,95.48
2022-10-07T05:24:23.161Z,94.92
2022-10-07T05:26:54.848Z,94.64
2022-10-07T05:29:23.539Z,94.45
2022-10-07T05:31:52.116Z,94.48
2022-10-07T05:34:21.693Z,94.42
2022-10-07T05:36:51.339Z,93.94
2022-10-07T05:39:27.491Z,93.46
2022-10-07T05:42:01.560Z,93.31
2022-10-07T05:44:41.703Z,93.78
2022-10-07T05:47:09.893Z,94.37
2022-10-07T05:49:41.695Z,95.16
2022-10-07T05:52:11.721Z,95.63
2022-10-07T05:54:41.851Z,95.73
2022-10-07T05:57:10.903Z,96.04
2022-10-07T05:59:41.542Z,96.04
2022-10-07T06:02:15.601Z,96.42
2022-10-07T06:04:47.723Z,96.98
2022-10-07T06:07:22.705Z,97.81
2022-10-07T06:10:12.783Z,99.01
2022-10-07T06:13:03.600Z,99.74
2022-10-07T06:15:38.319Z,100.00
2022-10-07T06:18:06.820Z,100.00
2022-10-07T06:20:36.681Z,100.00
2022-10-07T06:23:07.463Z,100.00
2022-10-07T06:25:36.767Z,100.00
2022-10-07T06:28:07.302Z,100.00
2022-10-07T06:30:44.744Z,100.00
2022-10-07T06:33:15.836Z,100.00
2022-10-07T06:35:48.302Z,100.00
2022-10-07T06:38:25.666Z,100.00
2022-10-07T06:41:07.426Z,100.00
2022-10-07T06:43:51.730Z,100.00
2022-10-07T06:46:21.267Z,100.00
2022-10-07T06:48:53.591Z,100.00
2022-10-07T06:51:23.450Z,100.00
2022-10-07T06:53:56.104Z,100.00
2022-10-07T06:56:34.341Z,100.00
2022-10-07T06:59:03.743Z,100.00
2022-10-07T07:01:42.731Z,100.00
2022-10-07T07:04:10.886Z,100.00
2022-10-07T07:06:44.196Z,100.00
2022-10-07T07:09:15.583Z,100.00
2022-10-07T07:11:45.371Z,100.00
2022-10-07T07:14:14.470Z,100.00
2022-10-07T07:16:48.050Z,100.00
2022-10-07T07:19:20.013Z,100.00
2022-10-07T07:21:53.024Z,100.00
2022-10-07T07:24:21.701Z,100.00
2022-10-07T07:26:51.393Z,100.00
2022-10-07T07:29:24.615Z,100.00
2022-10-07T07:31:53.123Z,100.00
2022-10-07T07:34:26.479Z,100.00
2022-10-07T07:37:03.807Z,100.00
2022-10-07T07:39:32.188Z,100.00
2022-10-07T07:42:06.313Z,100.00
2022-10-07T07:44:39.104Z,100.00
2022-10-07T07:47:08.763Z,100.00
2022-10-07T07:49:45.128Z,100.00
2022-10-07T07:52:14.863Z,100.00
2022-10-07T07:54:45.163Z,100.00
2022-10-07T07:57:19.743Z,100.00
2022-10-07T07:59:49.220Z,100.00
2022-10-07T08:02:23.839Z,100.00
2022-10-07T08:04:52.221Z,100.00
2022-10-07T08:07:24.057Z,100.00
2022-10-07T08:09:54.293Z,100.00
2022-10-07T08:12:26.107Z,100.00
2022-10-07T08:14:55.492Z,100.00
2022-10-07T08:17:26.264Z,100.00
2022-10-07T08:19:59.755Z,100.00
2022-10-07T08:22:29.349Z,100.00
2022-10-07T08:25:00.519Z,100.00
2022-10-07T08:27:31.123Z,100.00
2022-10-07T08:30:01.066Z,100.00
2022-10-07T08:32:35.305Z,100.00
2022-10-07T08:35:06.215Z,100.00
2022-10-07T08:37:35.730Z,100.00
2022-10-07T08:40:03.997Z,100.00
2022-10-07T08:42:41.413Z,100.00
2022-10-07T08:45:18.583Z,100.00
2022-10-07T08:47:54.733Z,100.00
2022-10-07T08:50:32.411Z,100.00
2022-10-07T08:53:08.826Z,100.00
2022-10-07T08:55:43.958Z,100.00
2022-10-07T08:58:35.459Z,100.00
2022-10-07T09:01:34.214Z,100.00
2022-10-07T09:04:15.923Z,100.00
2022-10-07T09:06:55.125Z,100.00
2022-10-07T09:09:29.396Z,100.00
2022-10-07T09:11:59.232Z,99.86
2022-10-07T09:14:31.473Z,99.27
2022-10-07T09:17:06.810Z,98.23
2022-10-07T09:19:38.494Z,97.36
2022-10-07T09:22:14.651Z,97.33
2022-10-07T09:24:49.935Z,96.48
2022-10-07T09:27:24.390Z,96.67
2022-10-07T09:29:52.737Z,95.27
2022-10-07T09:32:21.526Z,95.08
2022-10-07T09:34:49.609Z,94.93
2022-10-07T09:37:27.272Z,94.71
2022-10-07T09:40:17.688Z,93.58
2022-10-07T09:42:52.885Z,92.98
2022-10-07T09:45:26.431Z,92.61
2022-10-07T09:47:56.856Z,92.06
2022-10-07T09:50:40.118Z,91.75
2022-10-07T09:53:22.187Z,90.41
2022-10-07T09:55:55.416Z,89.11
2022-10-07T09:58:27.707Z,87.26
2022-10-07T10:00:58.416Z,85.10
2022-10-07T10:03:31.266Z,85.21
2022-10-07T10:06:01.428Z,84.56
2022-10-07T10:08:34.422Z,82.76
2022-10-07T10:11:09.106Z,81.72
2022-10-07T10:13:48.866Z,79.54
2022-10-07T10:16:35.388Z,78.04
2022-10-07T10:19:11.236Z,76.77
2022-10-07T10:21:50.199Z,76.59
2022-10-07T10:24:41.652Z,75.61
2022-10-07T10:27:18.339Z,75.08
2022-10-07T10:30:19.561Z,75.51
2022-10-07T10:33:15.872Z,76.24
2022-10-07T10:36:00.777Z,75.83
2022-10-07T10:38:37.987Z,76.57
2022-10-07T10:41:25.061Z,76.04
2022-10-07T10:44:35.340Z,76.77
2022-10-07T10:47:14.643Z,76.08
2022-10-07T10:49:53.254Z,76.16
2022-10-07T10:52:45.607Z,75.70
2022-10-07T10:55:37.068Z,75.40
2022-10-07T10:58:26.742Z,75.26
2022-10-07T11:01:04.946Z,74.45
2022-10-07T11:03:49.296Z,73.74
2022-10-07T11:06:31.584Z,72.17
2022-10-07T11:09:08.801Z,72.52
2022-10-07T11:11:41.567Z,70.32
2022-10-07T11:14:20.412Z,70.06
2022-10-07T11:16:59.830Z,69.56
2022-10-07T11:19:32.553Z,70.49
2022-10-07T11:22:06.505Z,70.67
2022-10-07T11:24:46.671Z,70.80
2022-10-07T11:27:30.355Z,70.88
2022-10-07T11:30:11.372Z,71.24
2022-10-07T11:33:04.033Z,71.45
2022-10-07T11:35:47.131Z,70.81
2022-10-07T11:38:21.655Z,68.16
2022-10-07T11:41:07.845Z,66.67
2022-10-07T11:43:53.874Z,65.90
2022-10-07T11:46:28.092Z,65.83
2022-10-07T11:49:08.396Z,64.86
2022-10-07T11:51:38.221Z,63.46
2022-10-07T11:54:13.788Z,63.30
2022-10-07T11:56:55.308Z,63.18
2022-10-07T11:59:42.373Z,63.38
2022-10-07T12:02:38.427Z,61.39
2022-10-07T12:05:56.852Z,61.76
2022-10-07T12:08:33.428Z,62.91
2022-10-07T12:11:50.124Z,62.74
2022-10-07T12:14:36.476Z,61.09
2022-10-07T12:17:33.582Z,60.23
2022-10-07T12:20:46.535Z,58.74
2022-10-07T12:24:11.506Z,57.85
2022-10-07T12:26:47.426Z,58.15
2022-10-07T12:29:59.386Z,55.66
2022-10-07T12:33:04.263Z,54.97
2022-10-07T12:35:55.921Z,54.91
2022-10-07T12:38:33.589Z,53.60
2022-10-07T12:41:26.119Z,54.49
2022-10-07T12:44:07.284Z,54.23
2022-10-07T12:47:20.414Z,52.15
2022-10-07T12:49:51.245Z,51.94
2022-10-07T12:52:35.969Z,52.24
2022-10-07T12:59:07.196Z,50.60
2022-10-07T13:02:30.128Z,49.73
2022-10-07T13:05:37.916Z,49.74
2022-10-07T13:08:48.423Z,50.25
2022-10-07T13:12:00.200Z,50.09
2022-10-07T13:14:44.631Z,50.07
2022-10-07T13:25:15.948Z,47.85
2022-10-07T13:31:31.102Z,47.18
2022-10-07T13:34:18.171Z,48.16
2022-10-07T13:37:16.507Z,48.89
2022-10-07T13:39:44.989Z,49.51
2022-10-07T13:43:26.898Z,50.82
2022-10-07T13:50:59.424Z,75.83
2022-10-07T13:53:32.223Z,79.96
2022-10-07T13:56:17.600Z,82.20
2022-10-07T13:58:46.781Z,85.10
2022-10-07T14:01:15.624Z,87.14
2022-10-07T14:04:05.137Z,87.94
2022-10-07T14:06:40.814Z,89.22
2022-10-07T14:09:28.829Z,89.16
2022-10-07T14:12:01.623Z,89.86
2022-10-07T14:14:40.241Z,89.09
2022-10-07T14:17:19.696Z,88.75
2022-10-07T14:19:55.011Z,86.89
2022-10-07T14:22:32.923Z,87.02
2022-10-07T14:25:19.041Z,87.43
2022-10-07T14:28:24.707Z,84.47
2022-10-07T14:31:30.257Z,84.87
2022-10-07T14:34:27.347Z,84.53
2022-10-07T14:37:26.239Z,82.12
2022-10-07T14:40:05.562Z,81.34
2022-10-07T14:43:10.575Z,80.45
2022-10-07T14:46:13.316Z,79.82
2022-10-07T14:48:46.406Z,78.82
2022-10-07T14:51:16.861Z,79.15
2022-10-07T14:57:04.984Z,75.96
2022-10-07T14:59:35.877Z,77.04
2022-10-07T15:02:08.911Z,76.06
2022-10-07T15:04:37.355Z,76.27
2022-10-07T15:07:05.694Z,75.17
2022-10-07T15:09:33.854Z,74.32
2022-10-07T15:12:02.028Z,73.88
2022-10-07T15:14:36.081Z,72.24
2022-10-07T15:17:17.096Z,70.58
2022-10-07T15:19:45.553Z,71.67
2022-10-07T15:23:16.251Z,71.63
2022-10-07T15:31:05.909Z,70.11
2022-10-07T15:33:25.844Z,69.55
2022-10-07T15:38:54.855Z,69.87
2022-10-07T15:41:36.304Z,69.71
2022-10-07T15:44:32.072Z,69.88
2022-10-07T15:50:53.513Z,70.31
2022-10-07T15:57:28.580Z,70.10
2022-10-07T16:00:05.549Z,69.80
2022-10-07T16:03:23.041Z,69.66
2022-10-07T16:06:40.285Z,70.81
2022-10-07T16:09:18.928Z,70.63
2022-10-07T16:12:10.062Z,70.61
2022-10-07T16:15:00.956Z,70.41
2022-10-07T16:21:00.003Z,71.53
2022-10-07T16:23:31.717Z,71.41
2022-10-07T16:26:08.659Z,71.94
2022-10-07T16:28:58.100Z,73.80
2022-10-07T16:31:31.603Z,76.07
2022-10-07T16:34:23.615Z,77.09
2022-10-07T16:37:01.952Z,77.97
2022-10-07T16:39:33.413Z,78.20
2022-10-07T16:42:04.582Z,78.21
2022-10-07T16:45:36.318Z,78.55
2022-10-07T16:51:04.094Z,79.01
2022-10-07T16:53:43.350Z,79.06
2022-10-07T16:56:33.473Z,78.70
2022-10-07T16:59:09.968Z,78.73
2022-10-07T17:01:44.258Z,78.89
2022-10-07T17:04:22.626Z,78.43
2022-10-07T17:06:53.030Z,78.18
2022-10-07T17:09:25.393Z,77.15
2022-10-07T17:12:09.510Z,77.18
2022-10-07T17:17:30.570Z,74.66
2022-10-07T17:20:06.349Z,75.39
2022-10-07T17:22:46.812Z,75.48
2022-10-07T17:25:24.530Z,75.83
2022-10-07T17:32:27.399Z,76.43
2022-10-07T17:35:03.852Z,76.81
2022-10-07T17:37:32.488Z,76.83
2022-10-07T17:40:21.969Z,77.36
2022-10-07T17:47:03.628Z,77.24
2022-10-07T17:49:31.075Z,77.56
2022-10-07T17:52:26.551Z,77.52
2022-10-07T17:55:15.497Z,77.37
2022-10-07T17:58:04.673Z,77.42
2022-10-07T18:00:40.567Z,77.76
2022-10-07T18:03:30.222Z,77.60
2022-10-07T18:06:02.722Z,77.53
2022-10-07T18:08:32.814Z,77.31
2022-10-07T18:14:11.958Z,77.72
2022-10-07T18:17:02.556Z,77.53
2022-10-07T18:19:33.201Z,77.57
2022-10-07T18:23:37.099Z,77.75
2022-10-07T18:25:28.192Z,78.00
2022-10-07T18:28:20.256Z,78.33
2022-10-07T18:37:47.351Z,78.58
2022-10-07T18:40:25.289Z,78.76
2022-10-07T18:45:39.616Z,79.24
2022-10-07T18:51:33.497Z,79.58
2022-10-07T18:54:02.969Z,80.14
2022-10-07T18:56:37.084Z,81.07
2022-10-07T18:59:09.854Z,81.88
2022-10-07T19:01:41.133Z,82.52
2022-10-07T19:07:13.098Z,82.89
2022-10-07T19:09:41.540Z,82.95
2022-10-07T19:12:25.165Z,83.20
2022-10-07T19:15:04.571Z,83.16
2022-10-07T19:17:34.893Z,83.55
2022-10-07T19:20:04.973Z,83.85
2022-10-07T19:22:36.097Z,83.89
2022-10-07T19:25:28.775Z,84.14
2022-10-07T19:27:58.661Z,84.19
2022-10-07T19:30:28.784Z,84.48
2022-10-07T19:32:59.407Z,84.89
2022-10-07T19:35:50.458Z,85.22
2022-10-07T19:38:20.733Z,85.24
2022-10-07T19:40:53.822Z,85.46
2022-10-07T19:43:36.388Z,85.55
2022-10-07T19:46:08.660Z,85.77
2022-10-07T19:48:44.544Z,85.82
2022-10-07T19:51:18.160Z,86.08
2022-10-07T19:53:51.471Z,86.05
2022-10-07T19:56:37.230Z,86.08
2022-10-07T19:59:39.486Z,85.97
2022-10-07T20:02:23.763Z,85.96
2022-10-07T20:05:02.176Z,85.99
2022-10-07T20:07:30.696Z,86.34
2022-10-07T20:10:07.530Z,86.25
2022-10-07T20:12:36.173Z,86.22
2022-10-07T20:15:06.882Z,86.21
2022-10-07T20:17:35.236Z,86.16
2022-10-07T20:20:14.630Z,86.23
2022-10-07T20:22:48.596Z,86.31
2022-10-07T20:25:18.619Z,86.42
2022-10-07T20:27:49.785Z,86.48
2022-10-07T20:30:19.640Z,86.49
2022-10-07T20:32:48.537Z,86.46
2022-10-07T20:35:17.540Z,86.67
2022-10-07T20:37:56.063Z,86.66
2022-10-07T20:40:43.272Z,86.80
2022-10-07T20:43:30.094Z,86.92
2022-10-07T20:45:59.834Z,87.05
2022-10-07T20:48:31.748Z,87.29
2022-10-07T20:51:19.154Z,87.35
2022-10-07T20:53:50.275Z,87.58
2022-10-07T20:56:21.768Z,87.63
2022-10-07T20:58:50.163Z,87.75
2022-10-07T21:01:28.534Z,87.90
2022-10-07T21:03:59.915Z,88.35
2022-10-07T21:06:28.417Z,88.26
2022-10-07T21:08:58.010Z,88.53
2022-10-07T21:11:30.539Z,88.75
2022-10-07T21:14:00.858Z,88.96
2022-10-07T21:16:32.948Z,89.23
2022-10-07T21:19:01.980Z,89.27
2022-10-07T21:21:38.417Z,89.46
2022-10-07T21:24:07.944Z,89.57
2022-10-07T21:26:36.716Z,89.79
2022-10-07T21:29:07.276Z,90.02
2022-10-07T21:31:54.381Z,90.21
2022-10-07T21:34:26.174Z,90.34
2022-10-07T21:36:57.389Z,90.54
2022-10-07T21:39:38.421Z,90.71
2022-10-07T21:42:09.454Z,90.79
2022-10-07T21:44:38.144Z,91.21
2022-10-07T21:47:10.456Z,91.53
2022-10-07T21:49:39.195Z,91.74
2022-10-07T21:52:08.000Z,91.92
2022-10-07T21:54:41.322Z,91.98
2022-10-07T21:57:10.056Z,92.31
2022-10-07T21:59:43.114Z,92.31
2022-10-07T22:02:13.891Z,92.66
2022-10-07T22:04:59.924Z,92.87
2022-10-07T22:07:45.564Z,93.11
2022-10-07T22:10:26.107Z,93.19
2022-10-07T22:12:54.379Z,93.35
2022-10-07T22:15:23.845Z,93.53
2022-10-07T22:17:53.713Z,93.76
2022-10-07T22:20:22.359Z,93.85
2022-10-07T22:22:55.514Z,93.98
2022-10-07T22:25:27.730Z,94.25
2022-10-07T22:27:56.383Z,94.40
2022-10-07T22:30:25.349Z,94.45
2022-10-07T22:32:55.032Z,94.66
2022-10-07T22:35:34.385Z,94.62
2022-10-07T22:38:05.512Z,94.89
2022-10-07T22:40:38.580Z,95.16
2022-10-07T22:43:09.749Z,95.32
2022-10-07T22:45:38.226Z,95.34
2022-10-07T22:48:09.028Z,95.49
2022-10-07T22:50:37.417Z,95.66
2022-10-07T22:53:13.469Z,95.76
2022-10-07T22:55:41.942Z,95.77
2022-10-07T22:58:19.318Z,95.97
2022-10-07T23:00:50.810Z,96.30
2022-10-07T23:03:24.871Z,96.19
2022-10-07T23:06:04.054Z,96.26
2022-10-07T23:08:38.641Z,96.37
2022-10-07T23:11:16.067Z,96.60
2022-10-07T23:13:48.312Z,96.38
2022-10-07T23:16:19.599Z,97.02
2022-10-07T23:18:53.213Z,97.15
2022-10-07T23:21:28.036Z,97.21
2022-10-07T23:24:07.391Z,97.14
2022-10-07T23:26:48.956Z,97.35
2022-10-07T23:29:21.268Z,97.43
2022-10-07T23:31:51.674Z,97.23
2022-10-07T23:34:23.079Z,97.63
2022-10-07T23:36:56.832Z,97.94
2022-10-07T23:39:25.931Z,97.79
2022-10-07T23:41:55.089Z,97.68
2022-10-07T23:44:25.275Z,97.97
2022-10-07T23:46:55.155Z,97.96
2022-10-07T23:49:26.224Z,97.72
2022-10-07T23:51:54.808Z,98.12
2022-10-07T23:54:23.087Z,98.30
2022-10-07T23:56:51.765Z,98.26
2022-10-07T23:59:20.250Z,98.26
